Time;durP1;ratioP1;P1;durP2;ratioP2;P2;SDS_P1;SDS_P2;PMS_P1;PMS_P2;Temp;Humidity;BMP_temperature;BMP_pressure;BME280_temperature;BME280_humidity;BME280_pressure;Samples;Min_cycle;Max_cycle;Signal;HPM_P1;HPM_P2
2021/12/29 00:01:03;;;;;;;2.50;0.77;;;;;;;;;;5051253;28;20103;-73
2021/12/29 00:03:29;;;;;;;3.70;1.20;;;;;;;;;;5051520;28;20454;-72
2021/12/29 00:05:54;;;;;;;3.67;1.05;;;;;;;;;;5051109;28;20212;-73
2021/12/29 00:08:19;;;;;;;5.38;1.77;;;;;;;;;;5051036;28;20056;-73
2021/12/29 00:10:46;;;;;;;3.95;1.20;;;;;;;;;;5051214;28;20033;-72
2021/12/29 00:13:12;;;;;;;4.53;1.20;;;;;;;;;;5051215;28;20013;-72
2021/12/29 00:15:38;;;;;;;4.75;1.48;;;;;;;;;;5050920;28;20087;-73
2021/12/29 00:18:04;;;;;;;5.50;1.20;;;;;;;;;;5050965;28;20056;-73
2021/12/29 00:20:31;;;;;;;5.45;1.30;;;;;;;;;;5050825;28;20028;-72
2021/12/29 00:22:59;;;;;;;3.25;0.95;;;;;;;;;;5051042;28;20056;-72
2021/12/29 00:25:24;;;;;;;5.35;1.30;;;;;;;;;;5050449;28;20052;-75
2021/12/29 00:27:50;;;;;;;2.83;0.95;;;;;;;;;;5051255;28;20422;-72
2021/12/29 00:30:16;;;;;;;3.85;1.40;;;;;;;;;;5050731;28;20478;-73
2021/12/29 00:32:41;;;;;;;4.07;0.90;;;;;;;;;;5050849;28;20029;-73
2021/12/29 00:35:11;;;;;;;3.47;1.15;;;;;;;;;;5050770;28;20088;-73
2021/12/29 00:37:36;;;;;;;2.75;0.90;;;;;;;;;;5050879;28;20032;-73
2021/12/29 00:40:02;;;;;;;3.33;0.98;;;;;;;;;;5050621;28;20017;-72
2021/12/29 00:42:27;;;;;;;3.63;1.02;;;;;;;;;;5050910;28;20471;-72
2021/12/29 00:44:54;;;;;;;2.95;1.30;;;;;;;;;;5050751;28;20056;-73
2021/12/29 00:47:19;;;;;;;3.50;1.27;;;;;;;;;;5050398;28;20103;-73
2021/12/29 00:49:46;;;;;;;2.42;1.10;;;;;;;;;;5050724;28;20172;-72
2021/12/29 00:52:12;;;;;;;3.35;1.02;;;;;;;;;;5050500;28;20040;-72
2021/12/29 00:54:41;;;;;;;3.42;1.10;;;;;;;;;;5050198;28;20100;-73
2021/12/29 00:57:07;;;;;;;3.30;1.27;;;;;;;;;;5050260;28;20029;-73
2021/12/29 00:59:32;;;;;;;3.80;0.98;;;;;;;;;;5049982;28;20070;-73
2021/12/29 01:01:58;;;;;;;4.40;1.02;;;;;;;;;;5050252;28;20036;-73
2021/12/29 01:04:25;;;;;;;5.25;1.08;;;;;;;;;;5049887;28;20104;-73
2021/12/29 01:06:50;;;;;;;4.68;1.00;;;;;;;;;;5050059;28;20029;-73
2021/12/29 01:09:16;;;;;;;3.60;0.95;;;;;;;;;;5050018;28;20367;-73
2021/12/29 01:11:42;;;;;;;1.50;0.90;;;;;;;;;;5050134;28;20064;-73
2021/12/29 01:14:08;;;;;;;2.70;1.10;;;;;;;;;;5049888;28;20024;-72
2021/12/29 01:19:04;;;;;;;1.67;0.90;;;;;;;;;;5049996;28;20152;-73
2021/12/29 01:21:29;;;;;;;6.60;1.25;;;;;;;;;;5049958;28;20025;-72
2021/12/29 01:23:55;;;;;;;4.75;1.00;;;;;;;;;;5049822;28;20489;-73
2021/12/29 01:26:20;;;;;;;4.60;1.10;;;;;;;;;;5050039;28;20029;-73
2021/12/29 01:28:45;;;;;;;3.20;1.35;;;;;;;;;;5049882;28;20025;-73
2021/12/29 01:31:11;;;;;;;5.68;1.20;;;;;;;;;;5049710;28;20442;-73
2021/12/29 01:33:36;;;;;;;4.03;1.10;;;;;;;;;;5049907;28;20021;-72
2021/12/29 01:36:02;;;;;;;4.00;0.82;;;;;;;;;;5049708;28;20021;-71
2021/12/29 01:38:27;;;;;;;1.33;0.82;;;;;;;;;;5048840;28;20457;-73
2021/12/29 01:40:53;;;;;;;3.53;1.00;;;;;;;;;;5049741;28;20442;-72
2021/12/29 01:43:18;;;;;;;5.10;0.80;;;;;;;;;;5049468;28;20036;-72
2021/12/29 01:45:45;;;;;;;2.08;0.80;;;;;;;;;;5049190;28;20087;-72
2021/12/29 01:48:10;;;;;;;2.28;0.88;;;;;;;;;;5049445;28;20485;-71
2021/12/29 01:50:38;;;;;;;1.52;0.80;;;;;;;;;;5049507;28;20057;-73
2021/12/29 01:53:08;;;;;;;5.32;1.00;;;;;;;;;;5049438;28;20039;-73
2021/12/29 01:55:36;;;;;;;3.08;1.00;;;;;;;;;;5049084;28;20494;-73
2021/12/29 01:58:01;;;;;;;2.70;1.00;;;;;;;;;;5049294;28;20036;-72
2021/12/29 02:00:29;;;;;;;3.47;1.33;;;;;;;;;;5049232;28;20036;-71
2021/12/29 02:02:55;;;;;;;3.15;1.70;;;;;;;;;;5049324;28;20443;-72
2021/12/29 02:05:20;;;;;;;2.97;1.00;;;;;;;;;;5049215;28;20025;-72
2021/12/29 02:07:46;;;;;;;3.35;1.33;;;;;;;;;;5049563;28;20025;-72
2021/12/29 02:10:13;;;;;;;4.97;1.15;;;;;;;;;;5049311;28;20036;-71
2021/12/29 02:12:39;;;;;;;2.58;1.17;;;;;;;;;;5049709;28;20106;-71
2021/12/29 02:15:06;;;;;;;2.95;0.80;;;;;;;;;;5049169;28;20516;-72
2021/12/29 02:17:32;;;;;;;2.40;1.00;;;;;;;;;;5049286;28;20031;-72
2021/12/29 02:20:03;;;;;;;3.65;1.30;;;;;;;;;;5049171;28;20261;-72
2021/12/29 02:22:41;;;;;;;2.38;0.93;;;;;;;;;;5049321;28;20049;-73
2021/12/29 02:27:50;;;;;;;2.80;1.00;;;;;;;;;;5049537;28;20474;-72
2021/12/29 02:30:18;;;;;;;3.42;1.10;;;;;;;;;;5049441;28;20063;-72
2021/12/29 02:32:44;;;;;;;4.28;1.00;;;;;;;;;;5049416;28;20028;-73
2021/12/29 02:35:11;;;;;;;3.33;1.55;;;;;;;;;;5049052;28;20028;-73
2021/12/29 02:37:38;;;;;;;5.07;1.15;;;;;;;;;;5049224;28;20048;-73
2021/12/29 02:40:05;;;;;;;2.53;0.82;;;;;;;;;;5048978;28;20024;-72
2021/12/29 02:42:38;;;;;;;4.05;1.73;;;;;;;;;;5049169;28;20031;-73
2021/12/29 02:45:05;;;;;;;4.15;0.98;;;;;;;;;;5048727;28;20082;-74
2021/12/29 02:47:31;;;;;;;3.65;1.25;;;;;;;;;;5048930;28;20039;-73
2021/12/29 02:49:56;;;;;;;4.10;1.13;;;;;;;;;;5050354;28;20111;-73
2021/12/29 02:52:24;;;;;;;2.55;1.05;;;;;;;;;;5052471;28;20752;-73
2021/12/29 02:54:50;;;;;;;4.03;1.00;;;;;;;;;;5052515;28;20548;-72
2021/12/29 02:57:15;;;;;;;3.28;1.10;;;;;;;;;;5052283;28;20042;-72
2021/12/29 02:59:40;;;;;;;4.10;1.25;;;;;;;;;;5052625;28;20029;-73
2021/12/29 03:02:06;;;;;;;4.80;0.93;;;;;;;;;;5052451;28;20025;-74
2021/12/29 03:04:31;;;;;;;1.75;0.88;;;;;;;;;;5052368;28;20028;-73
2021/12/29 03:06:56;;;;;;;3.20;0.98;;;;;;;;;;5052103;28;20036;-73
2021/12/29 03:09:22;;;;;;;2.53;1.23;;;;;;;;;;5051013;28;20067;-71
2021/12/29 03:11:47;;;;;;;4.78;1.10;;;;;;;;;;5050986;28;20166;-73
2021/12/29 03:14:14;;;;;;;4.60;1.40;;;;;;;;;;5052132;28;20465;-72
2021/12/29 03:16:40;;;;;;;2.80;1.23;;;;;;;;;;5052111;28;20025;-73
2021/12/29 03:19:06;;;;;;;4.22;1.50;;;;;;;;;;5052217;28;20029;-73
2021/12/29 03:21:34;;;;;;;3.50;1.30;;;;;;;;;;5050950;28;20025;-73
2021/12/29 03:23:59;;;;;;;5.57;1.92;;;;;;;;;;5051967;28;20119;-73
2021/12/29 03:26:25;;;;;;;4.93;1.13;;;;;;;;;;5052210;28;20159;-72
2021/12/29 03:28:52;;;;;;;6.72;1.38;;;;;;;;;;5052298;28;20150;-72
2021/12/29 03:31:21;;;;;;;3.58;1.20;;;;;;;;;;5051924;28;20025;-72
2021/12/29 03:33:46;;;;;;;3.92;1.13;;;;;;;;;;5051874;28;20021;-73
2021/12/29 03:36:12;;;;;;;4.20;1.27;;;;;;;;;;5051599;28;20035;-73
2021/12/29 03:38:40;;;;;;;4.80;1.10;;;;;;;;;;5061682;22;20100;-74
2021/12/29 03:41:08;;;;;;;6.53;1.15;;;;;;;;;;5032726;28;20486;-74
2021/12/29 03:43:34;;;;;;;5.43;1.35;;;;;;;;;;5030827;28;20127;-75
2021/12/29 03:46:00;;;;;;;6.03;1.73;;;;;;;;;;5030678;28;20104;-74
2021/12/29 03:48:26;;;;;;;5.68;1.70;;;;;;;;;;5032248;28;20578;-74
2021/12/29 03:50:53;;;;;;;2.67;1.02;;;;;;;;;;5032716;28;20368;-74
2021/12/29 03:53:19;;;;;;;5.68;1.60;;;;;;;;;;5033215;28;20021;-74
2021/12/29 03:55:48;;;;;;;3.72;1.40;;;;;;;;;;5032357;28;20030;-74
2021/12/29 03:58:14;;;;;;;7.80;1.75;;;;;;;;;;5032134;28;20025;-74
2021/12/29 04:00:39;;;;;;;2.88;1.20;;;;;;;;;;5031880;28;20036;-75
2021/12/29 04:03:05;;;;;;;4.97;1.58;;;;;;;;;;5032538;28;20025;-74
2021/12/29 04:05:31;;;;;;;5.68;1.08;;;;;;;;;;5032517;28;20034;-74
2021/12/29 04:07:56;;;;;;;4.88;1.35;;;;;;;;;;5031565;28;20107;-73
2021/12/29 04:10:23;;;;;;;6.68;1.55;;;;;;;;;;5032673;28;20033;-73
2021/12/29 04:12:48;;;;;;;3.97;1.88;;;;;;;;;;5031982;28;20032;-73
2021/12/29 04:15:15;;;;;;;5.10;1.40;;;;;;;;;;5031477;28;20029;-74
2021/12/29 04:17:41;;;;;;;2.55;1.38;;;;;;;;;;5031380;28;20021;-73
2021/12/29 04:22:52;;;;;;;5.75;1.58;;;;;;;;;;5031254;28;20402;-74
2021/12/29 04:25:23;;;;;;;5.00;1.50;;;;;;;;;;5031570;28;20029;-74
2021/12/29 04:27:49;;;;;;;4.32;1.50;;;;;;;;;;5031045;28;20030;-73
2021/12/29 04:30:14;;;;;;;4.28;1.58;;;;;;;;;;5031132;28;20112;-73
2021/12/29 04:32:39;;;;;;;3.83;1.38;;;;;;;;;;5030908;28;20045;-73
2021/12/29 04:35:05;;;;;;;5.78;1.35;;;;;;;;;;5031339;28;20017;-74
2021/12/29 04:37:30;;;;;;;7.18;1.38;;;;;;;;;;5030946;28;20527;-72
2021/12/29 04:39:55;;;;;;;4.65;1.77;;;;;;;;;;5031650;28;20026;-73
2021/12/29 04:42:21;;;;;;;5.35;1.20;;;;;;;;;;5031254;28;20048;-74
2021/12/29 04:44:46;;;;;;;5.88;1.50;;;;;;;;;;5030610;28;20067;-73
2021/12/29 04:47:12;;;;;;;5.68;1.63;;;;;;;;;;5031193;28;20026;-73
2021/12/29 04:49:41;;;;;;;6.07;1.50;;;;;;;;;;5031104;28;20251;-73
2021/12/29 04:52:10;;;;;;;3.97;1.08;;;;;;;;;;5030716;28;20049;-73
2021/12/29 04:54:36;;;;;;;5.68;1.38;;;;;;;;;;5031566;28;20056;-73
2021/12/29 04:57:02;;;;;;;5.75;1.33;;;;;;;;;;5031279;28;20045;-74
2021/12/29 04:59:28;;;;;;;8.30;2.70;;;;;;;;;;5030984;28;20067;-72
2021/12/29 05:01:53;;;;;;;6.93;1.50;;;;;;;;;;5030888;28;20517;-73
2021/12/29 05:04:44;;;;;;;6.47;1.30;;;;;;;;;;5030909;28;20064;-73
2021/12/29 05:09:53;;;;;;;6.05;1.67;;;;;;;;;;5030671;28;20045;-73
2021/12/29 05:12:19;;;;;;;4.38;1.38;;;;;;;;;;5030669;28;20033;-73
2021/12/29 05:14:44;;;;;;;7.00;1.40;;;;;;;;;;5029450;28;20057;-72
2021/12/29 05:17:09;;;;;;;7.70;1.65;;;;;;;;;;5030674;28;20036;-73
2021/12/29 05:19:35;;;;;;;6.18;1.30;;;;;;;;;;5030910;28;20029;-73
2021/12/29 05:22:00;;;;;;;5.28;1.38;;;;;;;;;;5030578;28;20022;-73
2021/12/29 05:24:25;;;;;;;4.50;1.42;;;;;;;;;;5030577;28;20029;-72
2021/12/29 05:26:51;;;;;;;4.38;1.25;;;;;;;;;;5030450;28;20045;-73
2021/12/29 05:29:16;;;;;;;5.97;1.40;;;;;;;;;;5030719;28;20029;-73
2021/12/29 05:31:41;;;;;;;6.85;1.77;;;;;;;;;;5030497;28;20025;-73
2021/12/29 05:34:07;;;;;;;5.80;1.45;;;;;;;;;;5030505;28;20021;-73
2021/12/29 05:36:32;;;;;;;5.95;1.70;;;;;;;;;;5030769;28;20032;-74
2021/12/29 05:38:58;;;;;;;8.30;1.60;;;;;;;;;;5029728;28;20113;-74
2021/12/29 05:41:23;;;;;;;5.68;1.50;;;;;;;;;;5030484;28;20467;-74
2021/12/29 05:43:49;;;;;;;6.25;1.13;;;;;;;;;;5030094;28;20025;-73
2021/12/29 05:46:14;;;;;;;6.15;1.13;;;;;;;;;;5029783;28;20030;-73
2021/12/29 05:48:40;;;;;;;5.82;1.20;;;;;;;;;;5030099;28;20378;-74
2021/12/29 05:51:06;;;;;;;4.03;1.30;;;;;;;;;;5030378;28;20029;-74
2021/12/29 05:53:32;;;;;;;6.80;1.08;;;;;;;;;;5030162;28;20069;-73
2021/12/29 05:55:57;;;;;;;5.60;1.20;;;;;;;;;;5030276;28;20065;-73
2021/12/29 05:58:23;;;;;;;7.95;1.95;;;;;;;;;;5030367;28;20029;-74
2021/12/29 06:00:48;;;;;;;4.53;1.05;;;;;;;;;;5030500;28;20029;-73
2021/12/29 06:03:15;;;;;;;4.32;1.13;;;;;;;;;;5030028;28;20021;-72
2021/12/29 06:05:40;;;;;;;6.25;1.45;;;;;;;;;;5029789;28;20025;-73
2021/12/29 06:08:06;;;;;;;4.35;1.30;;;;;;;;;;5029803;28;20029;-73
2021/12/29 06:10:32;;;;;;;6.47;1.27;;;;;;;;;;5029852;28;20033;-74
2021/12/29 06:12:57;;;;;;;4.55;1.33;;;;;;;;;;5029302;28;20418;-72
2021/12/29 06:15:22;;;;;;;5.38;1.30;;;;;;;;;;5029498;28;20026;-73
2021/12/29 06:17:48;;;;;;;8.40;2.15;;;;;;;;;;5029380;28;20025;-73
2021/12/29 06:20:13;;;;;;;4.95;1.58;;;;;;;;;;5029515;28;20033;-73
2021/12/29 06:22:40;;;;;;;5.45;1.40;;;;;;;;;;5029435;28;20025;-75
2021/12/29 06:25:08;;;;;;;6.88;1.30;;;;;;;;;;5033105;28;20084;-74
2021/12/29 06:27:34;;;;;;;5.47;1.27;;;;;;;;;;5033800;28;20029;-72
2021/12/29 06:29:59;;;;;;;6.47;1.20;;;;;;;;;;5034002;28;20021;-73
2021/12/29 06:32:26;;;;;;;1.70;1.00;;;;;;;;;;5033935;28;20476;-74
2021/12/29 06:34:51;;;;;;;6.78;1.40;;;;;;;;;;5033898;28;20021;-74
2021/12/29 06:37:16;;;;;;;3.38;1.25;;;;;;;;;;5033346;28;20025;-73
2021/12/29 06:39:44;;;;;;;2.60;1.10;;;;;;;;;;5033316;28;20501;-75
2021/12/29 06:42:10;;;;;;;2.58;1.10;;;;;;;;;;5033511;28;20165;-75
2021/12/29 06:44:36;;;;;;;3.00;0.90;;;;;;;;;;5033336;28;20030;-74
2021/12/29 06:47:02;;;;;;;2.90;1.00;;;;;;;;;;5033730;28;20147;-74
2021/12/29 06:49:28;;;;;;;5.97;1.40;;;;;;;;;;5033334;28;20112;-75
2021/12/29 06:51:53;;;;;;;3.88;2.28;;;;;;;;;;5031813;28;20441;-75
2021/12/29 06:54:18;;;;;;;5.55;2.83;;;;;;;;;;5033166;28;20032;-75
2021/12/29 06:56:44;;;;;;;7.68;2.78;;;;;;;;;;5033667;28;20025;-75
2021/12/29 06:59:09;;;;;;;3.38;1.30;;;;;;;;;;5046576;28;20036;-73
2021/12/29 07:01:35;;;;;;;6.60;1.30;;;;;;;;;;5029784;28;20029;-74
2021/12/29 07:04:00;;;;;;;3.58;1.10;;;;;;;;;;5033428;28;20052;-74
2021/12/29 07:06:25;;;;;;;3.17;1.20;;;;;;;;;;5033917;28;20498;-74
2021/12/29 07:08:51;;;;;;;3.58;1.52;;;;;;;;;;5033621;28;20045;-74
2021/12/29 07:11:16;;;;;;;4.80;1.30;;;;;;;;;;5032787;28;20633;-74
2021/12/29 07:13:44;;;;;;;5.65;1.48;;;;;;;;;;5032004;28;20025;-74
2021/12/29 07:16:10;;;;;;;4.60;1.38;;;;;;;;;;5049965;28;20017;-74
2021/12/29 07:18:35;;;;;;;4.70;1.23;;;;;;;;;;5042903;28;20414;-75
2021/12/29 07:21:00;;;;;;;3.50;1.42;;;;;;;;;;5041907;28;20037;-74
2021/12/29 07:23:26;;;;;;;3.55;1.08;;;;;;;;;;5052176;28;20021;-74
2021/12/29 07:25:51;;;;;;;3.80;1.13;;;;;;;;;;5051448;28;20029;-74
2021/12/29 07:28:16;;;;;;;5.43;1.20;;;;;;;;;;5051898;28;20402;-74
2021/12/29 07:30:42;;;;;;;6.00;2.15;;;;;;;;;;5051990;28;20078;-74
2021/12/29 07:33:08;;;;;;;7.07;3.03;;;;;;;;;;5052911;28;20061;-73
2021/12/29 07:35:33;;;;;;;9.38;3.75;;;;;;;;;;5045274;28;20025;-73
2021/12/29 07:37:58;;;;;;;9.00;4.20;;;;;;;;;;5032151;28;20033;-74
2021/12/29 07:40:24;;;;;;;7.20;2.47;;;;;;;;;;5032328;28;20383;-74
2021/12/29 07:42:49;;;;;;;11.52;6.45;;;;;;;;;;5023952;28;20025;-73
2021/12/29 07:45:15;;;;;;;10.90;7.47;;;;;;;;;;5033480;28;20037;-74
2021/12/29 07:47:46;;;;;;;6.00;2.17;;;;;;;;;;5031340;28;20482;-73
2021/12/29 07:50:12;;;;;;;10.52;5.40;;;;;;;;;;5032037;28;20021;-73
2021/12/29 07:52:38;;;;;;;10.75;7.75;;;;;;;;;;5035272;28;20037;-73
2021/12/29 07:55:04;;;;;;;7.28;2.20;;;;;;;;;;5039844;28;20017;-73
2021/12/29 07:57:29;;;;;;;5.28;1.92;;;;;;;;;;5029318;28;20056;-73
2021/12/29 07:59:55;;;;;;;5.70;2.08;;;;;;;;;;5033683;28;20479;-74
2021/12/29 08:02:27;;;;;;;10.48;3.90;;;;;;;;;;5027554;28;20029;-73
2021/12/29 08:04:52;;;;;;;5.43;2.77;;;;;;;;;;5030798;28;20018;-74
2021/12/29 08:07:18;;;;;;;4.03;1.70;;;;;;;;;;5031582;28;20356;-74
2021/12/29 08:09:43;;;;;;;10.07;3.70;;;;;;;;;;5030813;28;20028;-73
2021/12/29 08:12:08;;;;;;;5.95;2.55;;;;;;;;;;5031506;28;20034;-73
2021/12/29 08:14:34;;;;;;;9.25;3.55;;;;;;;;;;5031690;28;20040;-73
2021/12/29 08:17:01;;;;;;;7.90;2.78;;;;;;;;;;5031636;28;20021;-73
2021/12/29 08:19:26;;;;;;;7.05;2.53;;;;;;;;;;5032226;28;20123;-73
2021/12/29 08:21:51;;;;;;;7.13;2.03;;;;;;;;;;5031823;28;20534;-73
2021/12/29 08:24:17;;;;;;;5.72;2.08;;;;;;;;;;5040421;28;20107;-73
2021/12/29 08:26:42;;;;;;;6.53;2.95;;;;;;;;;;5051955;28;20283;-73
2021/12/29 08:29:07;;;;;;;11.02;2.90;;;;;;;;;;5049965;28;20072;-74
2021/12/29 08:31:33;;;;;;;16.98;8.88;;;;;;;;;;5034556;28;20071;-73
2021/12/29 08:33:58;;;;;;;20.05;7.57;;;;;;;;;;5022649;28;20053;-73
2021/12/29 08:36:24;;;;;;;140.55;66.95;;;;;;;;;;5031081;28;20025;-73
2021/12/29 08:38:49;;;;;;;79.75;41.53;;;;;;;;;;5030609;28;20028;-74
2021/12/29 08:41:15;;;;;;;40.05;21.30;;;;;;;;;;5028642;28;20037;-73
2021/12/29 08:43:41;;;;;;;12.82;4.95;;;;;;;;;;5029724;28;20169;-73
2021/12/29 08:46:06;;;;;;;6.25;3.90;;;;;;;;;;5030103;28;20021;-73
2021/12/29 08:48:32;;;;;;;11.93;3.50;;;;;;;;;;5029550;28;20040;-73
2021/12/29 08:50:59;;;;;;;7.63;3.20;;;;;;;;;;5029740;28;20029;-73
2021/12/29 08:53:26;;;;;;;6.57;2.85;;;;;;;;;;5030195;28;20025;-73
2021/12/29 08:55:52;;;;;;;9.05;3.00;;;;;;;;;;5031115;28;20033;-74
2021/12/29 08:58:18;;;;;;;9.00;3.83;;;;;;;;;;5030849;28;20455;-73
2021/12/29 09:00:44;;;;;;;5.05;1.98;;;;;;;;;;5029112;28;20112;-74
2021/12/29 09:03:09;;;;;;;6.05;1.88;;;;;;;;;;5029000;28;20029;-73
2021/12/29 09:05:36;;;;;;;6.05;2.70;;;;;;;;;;5033213;28;20219;-74
2021/12/29 09:08:01;;;;;;;10.45;2.53;;;;;;;;;;5038397;28;20036;-73
2021/12/29 09:10:27;;;;;;;7.10;2.10;;;;;;;;;;5049503;28;20449;-74
2021/12/29 09:12:52;;;;;;;7.75;3.00;;;;;;;;;;5033225;28;20080;-73
2021/12/29 09:15:19;;;;;;;9.65;2.88;;;;;;;;;;5030778;28;20032;-74
2021/12/29 09:17:46;;;;;;;5.88;2.47;;;;;;;;;;5029733;28;20467;-73
2021/12/29 09:20:16;;;;;;;7.93;2.75;;;;;;;;;;5030054;28;20041;-73
2021/12/29 09:22:42;;;;;;;8.45;2.60;;;;;;;;;;5036873;28;20037;-73
2021/12/29 09:25:09;;;;;;;9.65;2.80;;;;;;;;;;5045175;28;20053;-73
2021/12/29 09:27:34;;;;;;;6.28;2.20;;;;;;;;;;5050253;28;20103;-73
2021/12/29 09:30:00;;;;;;;8.25;2.10;;;;;;;;;;5050081;28;20064;-73
2021/12/29 09:32:30;;;;;;;4.28;1.73;;;;;;;;;;5031859;28;20387;-74
2021/12/29 09:34:59;;;;;;;5.68;1.60;;;;;;;;;;5024852;28;20029;-74
2021/12/29 09:37:25;;;;;;;5.22;2.58;;;;;;;;;;5030071;28;20028;-74
2021/12/29 09:39:50;;;;;;;8.52;2.97;;;;;;;;;;5066530;23;20041;-71
2021/12/29 09:42:16;;;;;;;8.95;2.47;;;;;;;;;;5049279;28;20098;-71
2021/12/29 09:44:41;;;;;;;21.40;11.52;;;;;;;;;;5049146;28;20037;-71
2021/12/29 09:47:08;;;;;;;50.30;23.30;;;;;;;;;;5048996;28;20036;-71
2021/12/29 09:49:34;;;;;;;22.95;12.60;;;;;;;;;;5064967;28;20021;-71
2021/12/29 09:52:00;;;;;;;18.42;9.95;;;;;;;;;;5069207;28;20055;-70
2021/12/29 09:54:25;;;;;;;9.93;3.72;;;;;;;;;;5068070;28;20462;-72
2021/12/29 09:56:50;;;;;;;4.97;4.07;;;;;;;;;;5069292;28;20442;-71
2021/12/29 09:59:18;;;;;;;5.78;3.20;;;;;;;;;;5066003;28;20030;-71
2021/12/29 10:01:43;;;;;;;4.60;1.40;;;;;;;;;;5049062;28;20036;-70
2021/12/29 10:04:09;;;;;;;4.05;2.30;;;;;;;;;;5047694;28;20025;-71
2021/12/29 10:06:34;;;;;;;5.78;1.90;;;;;;;;;;5050565;28;20220;-71
2021/12/29 10:09:10;;;;;;;3.63;1.95;;;;;;;;;;5049173;28;20033;-70
2021/12/29 10:11:36;;;;;;;8.38;1.95;;;;;;;;;;5049052;28;20082;-70
2021/12/29 10:14:07;;;;;;;6.30;1.90;;;;;;;;;;5049315;28;20031;-71
2021/12/29 10:16:33;;;;;;;4.05;1.70;;;;;;;;;;5049533;28;20033;-70
2021/12/29 10:19:05;;;;;;;4.68;1.83;;;;;;;;;;5047170;28;20033;-71
2021/12/29 10:21:31;;;;;;;7.20;2.80;;;;;;;;;;5049126;28;20027;-71
2021/12/29 10:23:58;;;;;;;7.47;1.98;;;;;;;;;;5049346;28;20031;-71
2021/12/29 10:26:27;;;;;;;4.50;1.70;;;;;;;;;;5048809;28;20082;-71
2021/12/29 10:29:00;;;;;;;2.08;1.63;;;;;;;;;;5048911;28;20113;-71
2021/12/29 10:31:39;;;;;;;5.88;2.70;;;;;;;;;;5052144;28;20358;-71
2021/12/29 10:34:19;;;;;;;6.68;2.35;;;;;;;;;;5049415;28;20605;-72
2021/12/29 10:36:51;;;;;;;4.78;1.60;;;;;;;;;;5049136;28;20295;-72
2021/12/29 10:39:37;;;;;;;7.00;2.10;;;;;;;;;;5048608;28;20055;-71
2021/12/29 10:42:09;;;;;;;8.07;1.92;;;;;;;;;;5048152;28;20025;-71
2021/12/29 10:44:41;;;;;;;6.35;1.80;;;;;;;;;;5055448;28;20029;-70
2021/12/29 10:47:23;;;;;;;7.80;2.60;;;;;;;;;;5062457;28;20037;-71
2021/12/29 10:49:55;;;;;;;2.63;1.92;;;;;;;;;;5048330;28;20116;-71
2021/12/29 10:52:43;;;;;;;2.15;1.50;;;;;;;;;;5037719;28;20032;-70
2021/12/29 10:55:31;;;;;;;4.82;1.88;;;;;;;;;;5048339;28;20386;-70
2021/12/29 10:58:06;;;;;;;4.55;1.95;;;;;;;;;;5052001;28;20036;-71
2021/12/29 11:00:34;;;;;;;6.40;2.53;;;;;;;;;;5048722;28;20078;-71
2021/12/29 11:03:19;;;;;;;4.43;2.13;;;;;;;;;;5047005;28;20057;-72
2021/12/29 11:05:48;;;;;;;6.25;2.20;;;;;;;;;;5028553;28;20037;-72
2021/12/29 11:08:15;;;;;;;10.32;5.63;;;;;;;;;;5028706;28;20562;-71
2021/12/29 11:10:41;;;;;;;36.85;18.98;;;;;;;;;;5030610;28;20056;-72
2021/12/29 11:13:08;;;;;;;21.92;10.15;;;;;;;;;;5032391;28;20029;-72
2021/12/29 11:15:38;;;;;;;24.50;12.75;;;;;;;;;;5032349;28;20029;-71
2021/12/29 11:18:07;;;;;;;9.15;4.75;;;;;;;;;;5032251;28;20021;-72
2021/12/29 11:20:35;;;;;;;7.55;4.63;;;;;;;;;;5036293;28;20048;-72
2021/12/29 11:23:20;;;;;;;6.93;4.00;;;;;;;;;;5052096;28;20596;-71
2021/12/29 11:25:46;;;;;;;9.20;4.40;;;;;;;;;;5052279;28;20390;-72
2021/12/29 11:28:25;;;;;;;8.30;3.47;;;;;;;;;;5052017;28;20794;-71
2021/12/29 11:30:52;;;;;;;5.50;2.42;;;;;;;;;;5052260;28;20028;-72
2021/12/29 11:33:18;;;;;;;5.43;3.10;;;;;;;;;;5052173;28;20535;-71
2021/12/29 11:35:47;;;;;;;9.60;5.03;;;;;;;;;;5052004;28;20029;-72
2021/12/29 11:38:13;;;;;;;9.85;5.05;;;;;;;;;;5050513;28;20125;-72
2021/12/29 11:40:45;;;;;;;8.50;3.85;;;;;;;;;;5052193;28;20493;-71
2021/12/29 11:43:15;;;;;;;6.60;2.60;;;;;;;;;;5052284;28;20100;-71
2021/12/29 11:45:42;;;;;;;4.90;2.33;;;;;;;;;;5051154;28;20033;-72
2021/12/29 11:48:10;;;;;;;6.75;2.80;;;;;;;;;;5050664;28;20056;-71
2021/12/29 11:50:46;;;;;;;10.73;2.75;;;;;;;;;;5051269;28;20029;-72
2021/12/29 11:53:32;;;;;;;4.35;2.20;;;;;;;;;;5051310;28;20103;-72
2021/12/29 11:56:14;;;;;;;5.78;2.30;;;;;;;;;;5051104;28;20535;-72
2021/12/29 11:58:44;;;;;;;6.85;2.40;;;;;;;;;;5051175;28;20104;-72
2021/12/29 12:01:16;;;;;;;8.30;2.40;;;;;;;;;;5050801;28;20027;-71
2021/12/29 12:03:58;;;;;;;5.00;2.90;;;;;;;;;;5050976;28;20075;-71
2021/12/29 12:06:42;;;;;;;8.70;2.90;;;;;;;;;;5049635;28;20028;-72
2021/12/29 12:09:22;;;;;;;5.70;2.13;;;;;;;;;;5051063;28;20104;-72
2021/12/29 12:11:48;;;;;;;7.03;2.33;;;;;;;;;;5050970;28;20107;-71
2021/12/29 12:14:34;;;;;;;4.20;2.08;;;;;;;;;;5050998;28;20744;-70
2021/12/29 12:17:08;;;;;;;10.88;3.92;;;;;;;;;;5050676;28;20107;-72
2021/12/29 12:19:34;;;;;;;16.10;7.10;;;;;;;;;;5050671;28;20036;-72
2021/12/29 12:22:13;;;;;;;4.25;2.13;;;;;;;;;;5049918;28;20037;-71
2021/12/29 12:24:41;;;;;;;6.13;2.53;;;;;;;;;;5050408;28;20024;-71
2021/12/29 12:27:15;;;;;;;3.25;1.73;;;;;;;;;;5050641;28;20060;-71
2021/12/29 12:29:43;;;;;;;3.97;2.10;;;;;;;;;;5050687;28;20026;-72
2021/12/29 12:32:17;;;;;;;28.85;12.75;;;;;;;;;;5049226;28;20496;-71
2021/12/29 12:35:01;;;;;;;19.92;9.75;;;;;;;;;;5049021;28;20029;-71
2021/12/29 12:37:31;;;;;;;17.10;9.95;;;;;;;;;;5050758;28;20491;-72
2021/12/29 12:40:05;;;;;;;20.77;13.02;;;;;;;;;;5050230;28;20052;-71
2021/12/29 12:42:30;;;;;;;14.27;6.72;;;;;;;;;;5050587;28;20021;-72
2021/12/29 12:44:57;;;;;;;6.50;3.92;;;;;;;;;;5049826;28;20524;-72
2021/12/29 12:47:28;;;;;;;4.18;3.00;;;;;;;;;;5050308;28;20406;-71
2021/12/29 12:49:54;;;;;;;8.60;5.00;;;;;;;;;;5050151;28;20028;-71
2021/12/29 12:52:23;;;;;;;6.20;2.95;;;;;;;;;;5050065;28;20546;-71
2021/12/29 12:54:57;;;;;;;22.20;13.02;;;;;;;;;;5049845;28;20284;-72
2021/12/29 12:57:40;;;;;;;9.55;5.25;;;;;;;;;;5050158;28;20036;-71
2021/12/29 13:00:15;;;;;;;;;;;;;;;;;;5050641;28;20040;-71
2021/12/29 13:02:51;;;;;;;11.15;5.18;;;;;;;;;;5049218;28;19908;-71
2021/12/29 13:05:24;;;;;;;5.78;3.20;;;;;;;;;;5049759;28;20025;-70
2021/12/29 13:08:13;;;;;;;7.97;3.80;;;;;;;;;;5050386;28;20525;-71
2021/12/29 13:11:03;;;;;;;5.32;3.70;;;;;;;;;;5049762;28;20040;-71
2021/12/29 13:13:32;;;;;;;6.10;3.60;;;;;;;;;;5049557;28;20029;-72
2021/12/29 13:16:02;;;;;;;3.05;2.15;;;;;;;;;;5049569;28;20025;-71
2021/12/29 13:18:28;;;;;;;4.72;2.85;;;;;;;;;;5049596;28;20025;-71
2021/12/29 13:21:04;;;;;;;4.50;2.25;;;;;;;;;;5049470;28;20081;-70
2021/12/29 13:23:29;;;;;;;3.38;1.60;;;;;;;;;;5049163;28;20029;-70
2021/12/29 13:25:56;;;;;;;4.53;2.53;;;;;;;;;;5049616;28;20033;-71
2021/12/29 13:28:22;;;;;;;5.65;1.70;;;;;;;;;;5049677;28;20029;-71
2021/12/29 13:30:55;;;;;;;3.17;2.10;;;;;;;;;;5049624;28;20390;-71
2021/12/29 13:33:23;;;;;;;3.45;1.40;;;;;;;;;;5049227;28;20557;-72
2021/12/29 13:35:51;;;;;;;5.72;1.88;;;;;;;;;;5036434;28;20037;-70
2021/12/29 13:38:18;;;;;;;43.35;23.55;;;;;;;;;;5029452;28;20040;-70
2021/12/29 13:40:45;;;;;;;7.43;4.20;;;;;;;;;;5029327;28;20029;-72
2021/12/29 13:43:15;;;;;;;4.88;3.05;;;;;;;;;;5029405;28;20568;-71
2021/12/29 13:45:41;;;;;;;4.20;2.38;;;;;;;;;;5029239;28;20407;-71
2021/12/29 13:48:13;;;;;;;3.20;1.50;;;;;;;;;;5029516;28;20251;-71
2021/12/29 13:50:39;;;;;;;4.85;3.00;;;;;;;;;;5029325;28;20048;-71
2021/12/29 13:53:08;;;;;;;3.30;2.50;;;;;;;;;;5029366;28;20029;-71
2021/12/29 13:55:38;;;;;;;4.68;1.45;;;;;;;;;;5031086;28;20025;-72
2021/12/29 13:58:05;;;;;;;5.80;2.40;;;;;;;;;;5049248;28;20104;-71
2021/12/29 14:00:34;;;;;;;4.18;1.48;;;;;;;;;;5049489;28;20437;-72
2021/12/29 14:03:00;;;;;;;7.50;4.00;;;;;;;;;;5049671;28;20036;-72
2021/12/29 14:05:46;;;;;;;3.30;1.60;;;;;;;;;;5048837;28;20028;-70
2021/12/29 14:08:14;;;;;;;3.88;1.40;;;;;;;;;;5049184;28;20021;-72
2021/12/29 14:10:40;;;;;;;3.30;1.60;;;;;;;;;;5048883;28;20048;-71
2021/12/29 14:13:12;;;;;;;2.92;1.15;;;;;;;;;;5048950;28;20538;-72
2021/12/29 14:15:38;;;;;;;9.23;3.42;;;;;;;;;;5048542;28;20075;-72
2021/12/29 14:18:14;;;;;;;5.68;3.50;;;;;;;;;;5048836;28;20103;-71
2021/12/29 14:20:40;;;;;;;4.05;1.80;;;;;;;;;;5049105;28;20444;-72
2021/12/29 14:23:06;;;;;;;6.20;2.40;;;;;;;;;;5048987;28;20501;-71
2021/12/29 14:25:36;;;;;;;4.90;1.50;;;;;;;;;;5047998;28;20029;-71
2021/12/29 14:28:02;;;;;;;3.28;1.63;;;;;;;;;;5047592;28;20021;-72
2021/12/29 14:30:28;;;;;;;2.83;1.52;;;;;;;;;;5048845;28;20471;-71
2021/12/29 14:33:02;;;;;;;3.17;1.65;;;;;;;;;;5048896;28;20090;-71
2021/12/29 14:35:29;;;;;;;2.70;1.30;;;;;;;;;;5048788;28;20025;-72
2021/12/29 14:37:56;;;;;;;2.65;1.60;;;;;;;;;;5048711;28;20039;-71
2021/12/29 14:40:28;;;;;;;5.95;1.58;;;;;;;;;;5048540;28;20025;-72
2021/12/29 14:42:53;;;;;;;4.15;1.50;;;;;;;;;;5048621;28;20033;-71
2021/12/29 14:45:19;;;;;;;3.55;1.67;;;;;;;;;;5050072;28;20512;-71
2021/12/29 14:47:48;;;;;;;10.50;5.25;;;;;;;;;;5052462;28;20457;-71
2021/12/29 14:50:17;;;;;;;38.97;15.25;;;;;;;;;;5052713;28;20227;-71
2021/12/29 14:52:45;;;;;;;20.80;9.07;;;;;;;;;;5052467;28;20025;-71
2021/12/29 14:55:14;;;;;;;20.65;8.63;;;;;;;;;;5051991;28;20017;-71